Terminal Aerodrome Forecast
Issued by NWS Buffalo, NY

Home | Current Version | Previous Version | Text Only | Print | Product List | Glossary On
Versions: 1 2 3 4 5 6 7 8 9 10 11 12 13 14 15 16 17 18 19 20 21 22 23 24
000
FTUS41 KBUF 261500 AAA
TAFBUF
TAF AMD
KBUF 261505Z 2615/2712 21014G18KT P6SM BKN025 BKN150
      TEMPO 2616/2618 SCT025 BKN150
     FM262100 23011KT P6SM SCT150=

USA.gov is the U.S. government's official web portal to all federal, state and local government web resources and services.